createdAt,value
2023-05-02T00:00:14.477Z,19.85
2023-05-02T00:02:44.445Z,19.86
2023-05-02T00:05:13.183Z,19.85
2023-05-02T00:07:41.849Z,19.85
2023-05-02T00:10:11.098Z,19.85
2023-05-02T00:12:39.727Z,19.86
2023-05-02T00:15:09.391Z,19.87
2023-05-02T00:17:38.406Z,19.85
2023-05-02T00:20:10.402Z,19.86
2023-05-02T00:22:39.305Z,19.83
2023-05-02T00:25:08.587Z,19.85
2023-05-02T00:27:37.042Z,19.85
2023-05-02T00:30:06.680Z,19.85
2023-05-02T00:32:35.503Z,19.85
2023-05-02T00:35:04.587Z,19.84
2023-05-02T00:37:34.382Z,19.85
2023-05-02T00:40:03.448Z,19.84
2023-05-02T00:42:36.353Z,19.83
2023-05-02T00:45:06.698Z,19.83
2023-05-02T00:47:36.248Z,19.83
2023-05-02T00:50:05.502Z,19.83
2023-05-02T00:52:35.497Z,19.83
2023-05-02T00:55:04.360Z,19.84
2023-05-02T00:57:34.232Z,19.83
2023-05-02T01:00:04.610Z,19.82
2023-05-02T01:02:39.363Z,19.83
2023-05-02T01:05:16.692Z,19.82
2023-05-02T01:08:15.106Z,19.82
2023-05-02T01:10:48.962Z,19.82
2023-05-02T01:13:22.632Z,19.82
2023-05-02T01:15:54.448Z,19.82
2023-05-02T01:18:26.479Z,19.82
2023-05-02T01:21:00.115Z,19.82
2023-05-02T01:23:39.793Z,19.81
2023-05-02T01:26:17.957Z,19.82
2023-05-02T01:28:58.312Z,19.81
2023-05-02T01:31:28.164Z,19.81
2023-05-02T01:33:59.832Z,19.81
2023-05-02T01:36:31.631Z,19.81
2023-05-02T01:39:02.731Z,19.80
2023-05-02T01:41:33.770Z,19.81
2023-05-02T01:44:05.035Z,19.82
2023-05-02T01:46:38.163Z,19.80
2023-05-02T01:49:08.104Z,19.80
2023-05-02T01:51:39.475Z,19.79
2023-05-02T01:54:09.992Z,19.80
2023-05-02T01:56:40.395Z,19.79
2023-05-02T01:59:13.358Z,19.77
2023-05-02T02:01:44.821Z,19.78
2023-05-02T02:04:16.402Z,19.78
2023-05-02T02:06:49.479Z,19.77
2023-05-02T02:09:18.016Z,19.77
2023-05-02T02:11:53.296Z,19.78
2023-05-02T02:14:27.152Z,19.77
2023-05-02T02:16:57.661Z,19.78
2023-05-02T02:19:26.279Z,19.77
2023-05-02T02:21:57.510Z,19.78
2023-05-02T02:24:27.617Z,19.78
2023-05-02T02:26:56.075Z,19.76
2023-05-02T02:29:25.979Z,19.75
2023-05-02T02:31:54.391Z,19.76
2023-05-02T02:34:23.132Z,19.76
2023-05-02T02:36:58.010Z,19.76
2023-05-02T02:39:39.652Z,19.76
2023-05-02T02:42:15.342Z,19.76
2023-05-02T02:44:54.484Z,19.76
2023-05-02T02:47:28.544Z,19.76
2023-05-02T02:50:06.522Z,19.76
2023-05-02T02:52:49.298Z,19.76
2023-05-02T02:55:25.338Z,19.75
2023-05-02T02:58:00.133Z,19.75
2023-05-02T03:00:30.834Z,19.75
2023-05-02T03:03:01.942Z,19.74
2023-05-02T03:05:31.448Z,19.74
2023-05-02T03:08:00.957Z,19.74
2023-05-02T03:10:29.344Z,19.73
2023-05-02T03:12:57.808Z,19.74
2023-05-02T03:15:59.970Z,19.74
2023-05-02T03:18:31.410Z,19.72
2023-05-02T03:21:00.984Z,19.72
2023-05-02T03:23:29.451Z,19.73
2023-05-02T03:25:58.083Z,19.73
2023-05-02T03:28:27.762Z,19.72
2023-05-02T03:30:58.140Z,19.73
2023-05-02T03:33:29.521Z,19.73
2023-05-02T03:35:58.092Z,19.71
2023-05-02T03:38:27.116Z,19.71
2023-05-02T03:40:58.106Z,19.72
2023-05-02T03:43:27.442Z,19.71
2023-05-02T03:45:59.431Z,19.71
2023-05-02T03:48:28.732Z,19.71
2023-05-02T03:50:57.333Z,19.71
2023-05-02T03:53:26.180Z,19.71
2023-05-02T03:55:59.154Z,19.71
2023-05-02T03:58:38.997Z,19.71
2023-05-02T04:01:16.737Z,19.71
2023-05-02T04:03:48.537Z,19.71
2023-05-02T04:06:19.338Z,19.70
2023-05-02T04:08:53.616Z,19.71
2023-05-02T04:11:22.475Z,19.71
2023-05-02T04:13:53.691Z,19.71
2023-05-02T04:16:23.883Z,19.71
2023-05-02T04:18:52.473Z,19.71
2023-05-02T04:21:21.593Z,19.71
2023-05-02T04:23:50.108Z,19.69
2023-05-02T04:26:18.611Z,19.69
2023-05-02T04:29:00.122Z,19.70
2023-05-02T04:31:30.345Z,19.69
2023-05-02T04:33:59.280Z,19.69
2023-05-02T04:36:31.498Z,19.69
2023-05-02T04:38:59.872Z,19.69
2023-05-02T04:41:29.127Z,19.72
2023-05-02T04:44:02.336Z,19.78
2023-05-02T04:46:33.007Z,19.83
2023-05-02T04:49:01.550Z,19.88
2023-05-02T04:51:31.917Z,19.92
2023-05-02T04:54:00.667Z,19.94
2023-05-02T04:56:29.568Z,19.97
2023-05-02T04:58:58.052Z,19.98
2023-05-02T05:01:28.061Z,19.98
2023-05-02T05:03:58.772Z,19.99
2023-05-02T05:06:27.899Z,19.99
2023-05-02T05:08:57.153Z,20.04
2023-05-02T05:11:26.586Z,20.19
2023-05-02T05:13:55.283Z,20.39
2023-05-02T05:16:24.849Z,20.61
2023-05-02T05:18:53.911Z,20.81
2023-05-02T05:21:25.065Z,20.99
2023-05-02T05:23:54.162Z,21.12
2023-05-02T05:26:27.218Z,21.23
2023-05-02T05:28:56.481Z,21.27
2023-05-02T05:31:28.286Z,21.33
2023-05-02T05:34:01.245Z,21.42
2023-05-02T05:36:32.499Z,21.47
2023-05-02T05:39:01.344Z,21.50
2023-05-02T05:41:30.525Z,21.52
2023-05-02T05:44:04.800Z,21.59
2023-05-02T05:46:33.569Z,21.64
2023-05-02T05:49:03.197Z,21.68
2023-05-02T05:51:33.351Z,21.72
2023-05-02T05:54:02.530Z,21.79
2023-05-02T05:56:31.342Z,21.85
2023-05-02T05:59:07.541Z,21.90
2023-05-02T06:01:36.426Z,21.93
2023-05-02T06:04:06.544Z,22.02
2023-05-02T06:06:39.289Z,22.08
2023-05-02T06:09:07.992Z,22.12
2023-05-02T06:11:38.015Z,22.17
2023-05-02T06:14:06.614Z,22.22
2023-05-02T06:16:35.210Z,22.27
2023-05-02T06:19:03.833Z,22.33
2023-05-02T06:21:32.405Z,22.37
2023-05-02T06:24:02.173Z,22.44
2023-05-02T06:26:30.699Z,22.51
2023-05-02T06:28:59.190Z,22.55
2023-05-02T06:31:27.566Z,22.59
2023-05-02T06:33:55.966Z,22.63
2023-05-02T06:36:24.373Z,22.66
2023-05-02T06:38:52.782Z,22.67
2023-05-02T06:41:23.454Z,22.67
2023-05-02T06:43:51.878Z,22.71
2023-05-02T06:46:20.883Z,22.74
2023-05-02T06:48:49.413Z,22.75
2023-05-02T06:51:19.382Z,22.75
2023-05-02T06:53:47.751Z,22.79
2023-05-02T06:56:16.259Z,22.80
2023-05-02T06:58:46.111Z,22.80
2023-05-02T07:01:14.649Z,22.82
2023-05-02T07:03:43.243Z,22.84
2023-05-02T07:06:11.714Z,22.87
2023-05-02T07:08:40.210Z,22.89
2023-05-02T07:11:08.638Z,22.88
2023-05-02T07:13:37.031Z,22.91
2023-05-02T07:16:08.064Z,22.97
2023-05-02T07:18:36.763Z,22.98
2023-05-02T07:21:05.488Z,22.98
2023-05-02T07:23:33.897Z,23.01
2023-05-02T07:26:05.592Z,23.04
2023-05-02T07:28:34.758Z,23.04
2023-05-02T07:31:03.404Z,23.03
2023-05-02T07:33:33.159Z,23.06
2023-05-02T07:36:03.021Z,23.07
2023-05-02T07:38:31.809Z,23.08
2023-05-02T07:41:00.986Z,23.08
2023-05-02T07:43:29.400Z,23.10
2023-05-02T07:45:57.912Z,23.13
2023-05-02T07:48:27.800Z,23.15
2023-05-02T07:50:58.621Z,23.14
2023-05-02T07:53:27.196Z,23.17
2023-05-02T07:55:55.606Z,23.20
2023-05-02T07:58:24.140Z,23.21
2023-05-02T08:00:52.561Z,23.18
2023-05-02T08:03:21.311Z,23.20
2023-05-02T08:05:49.878Z,23.23
2023-05-02T08:08:19.712Z,23.24
2023-05-02T08:10:48.220Z,23.24
2023-05-02T08:13:16.631Z,23.27
2023-05-02T08:15:45.751Z,23.30
2023-05-02T08:18:14.301Z,23.31
2023-05-02T08:20:44.890Z,23.29
2023-05-02T08:23:13.381Z,23.32
2023-05-02T08:25:43.405Z,23.35
2023-05-02T08:28:11.850Z,23.35
2023-05-02T08:30:40.329Z,23.33
2023-05-02T08:33:08.876Z,23.36
2023-05-02T08:35:37.454Z,23.38
2023-05-02T08:38:06.378Z,23.38
2023-05-02T08:40:42.257Z,23.38
2023-05-02T08:43:14.119Z,23.39
2023-05-02T08:45:44.006Z,23.43
2023-05-02T08:48:16.874Z,23.42
2023-05-02T08:50:48.228Z,23.42
2023-05-02T08:53:18.220Z,23.43
2023-05-02T08:55:47.739Z,23.46
2023-05-02T08:58:17.831Z,23.47
2023-05-02T09:00:49.644Z,23.46
2023-05-02T09:03:25.015Z,23.47
2023-05-02T09:05:55.107Z,23.50
2023-05-02T09:08:24.950Z,23.48
2023-05-02T09:10:53.614Z,23.49
2023-05-02T09:13:35.220Z,23.50
2023-05-02T09:16:05.627Z,23.51
2023-05-02T09:18:36.148Z,23.50
2023-05-02T09:21:08.812Z,23.50
2023-05-02T09:23:39.870Z,23.52
2023-05-02T09:26:20.204Z,23.53
2023-05-02T09:28:51.580Z,23.54
2023-05-02T09:31:43.564Z,23.51
2023-05-02T09:34:11.766Z,23.54
2023-05-02T09:36:41.997Z,23.54
2023-05-02T09:39:13.317Z,23.54
2023-05-02T09:41:42.625Z,23.52
2023-05-02T09:44:13.684Z,23.53
2023-05-02T09:46:42.976Z,23.56
2023-05-02T09:49:11.529Z,23.56
2023-05-02T09:51:40.046Z,23.55
2023-05-02T09:54:08.814Z,23.56
2023-05-02T09:56:56.351Z,23.58
2023-05-02T09:59:26.373Z,23.59
2023-05-02T10:01:56.703Z,23.56
2023-05-02T10:04:25.928Z,23.59
2023-05-02T10:06:55.224Z,23.62
2023-05-02T10:09:24.164Z,23.61
2023-05-02T10:11:54.210Z,23.62
2023-05-02T10:14:24.651Z,23.64
2023-05-02T10:17:01.491Z,23.65
2023-05-02T10:19:32.887Z,23.63
2023-05-02T10:22:01.720Z,23.60
2023-05-02T10:24:33.132Z,23.60
2023-05-02T10:27:02.035Z,23.60
2023-05-02T10:29:30.848Z,23.58
2023-05-02T10:32:02.068Z,23.57
2023-05-02T10:34:33.802Z,23.57
2023-05-02T10:37:02.641Z,23.57
2023-05-02T10:39:32.898Z,23.56
2023-05-02T10:42:04.409Z,23.53
2023-05-02T10:44:36.438Z,23.55
2023-05-02T10:50:00.291Z,23.56
2023-05-02T10:52:31.640Z,23.52
2023-05-02T10:55:16.896Z,23.54
2023-05-02T10:58:18.752Z,23.56
2023-05-02T11:00:47.365Z,23.57
2023-05-02T11:03:15.987Z,23.57
2023-05-02T11:06:08.028Z,23.62
2023-05-02T11:08:36.995Z,23.65
2023-05-02T11:11:39.561Z,23.64
2023-05-02T11:14:09.537Z,23.67
2023-05-02T11:17:09.643Z,23.68
2023-05-02T11:20:29.000Z,23.69
2023-05-02T11:23:00.773Z,23.68
2023-05-02T11:25:37.363Z,23.72
2023-05-02T11:28:08.590Z,23.74
2023-05-02T11:30:45.127Z,23.74
2023-05-02T11:33:20.896Z,23.76
2023-05-02T11:35:49.925Z,23.79
2023-05-02T11:38:22.753Z,23.78
2023-05-02T11:40:59.463Z,23.74
2023-05-02T11:43:31.967Z,23.70
2023-05-02T11:46:02.536Z,23.58
2023-05-02T11:48:32.514Z,23.48
2023-05-02T11:51:05.251Z,23.36
2023-05-02T11:53:41.248Z,23.25
2023-05-02T11:56:10.059Z,23.16
2023-05-02T11:58:38.689Z,23.07
2023-05-02T12:01:14.419Z,22.98
2023-05-02T12:03:43.488Z,22.92
2023-05-02T12:06:14.150Z,22.85
2023-05-02T12:08:45.820Z,22.79
2023-05-02T12:11:15.472Z,22.73
2023-05-02T12:13:48.764Z,22.68
2023-05-02T12:16:18.187Z,22.64
2023-05-02T12:18:48.520Z,22.62
2023-05-02T12:21:18.182Z,22.62
2023-05-02T12:23:48.230Z,22.64
2023-05-02T12:26:21.322Z,22.68
2023-05-02T12:28:50.851Z,22.72
2023-05-02T12:31:19.898Z,22.77
2023-05-02T12:33:50.519Z,22.81
2023-05-02T12:36:19.471Z,22.84
2023-05-02T12:38:54.882Z,22.87
2023-05-02T12:41:34.091Z,22.89
2023-05-02T12:44:02.988Z,22.91
2023-05-02T12:46:32.380Z,22.91
2023-05-02T12:49:06.557Z,22.95
2023-05-02T12:51:35.204Z,22.98
2023-05-02T12:54:06.680Z,23.05
2023-05-02T12:56:40.515Z,23.12
2023-05-02T12:59:09.530Z,23.18
2023-05-02T13:01:38.586Z,23.21
2023-05-02T13:04:07.173Z,23.21
2023-05-02T13:06:37.947Z,23.23
2023-05-02T13:09:08.229Z,23.27
2023-05-02T13:11:36.791Z,23.26
2023-05-02T13:14:05.813Z,23.24
2023-05-02T13:16:36.619Z,23.23
2023-05-02T13:19:06.187Z,23.22
2023-05-02T13:21:34.708Z,23.22
2023-05-02T13:24:04.039Z,23.22
2023-05-02T13:26:33.961Z,23.20
2023-05-02T13:29:02.467Z,23.19
2023-05-02T13:31:31.100Z,23.17
2023-05-02T13:33:59.620Z,23.15
2023-05-02T13:41:29.888Z,22.90
2023-05-02T13:44:01.692Z,22.80
2023-05-02T13:46:36.113Z,22.71
2023-05-02T13:49:04.834Z,22.65
2023-05-02T13:51:34.001Z,22.57
2023-05-02T13:54:02.527Z,22.53
2023-05-02T13:56:31.128Z,22.49
2023-05-02T13:59:00.966Z,22.49
2023-05-02T14:01:29.718Z,22.52
2023-05-02T14:03:58.550Z,22.56
2023-05-02T14:06:27.319Z,22.61
2023-05-02T14:08:55.974Z,22.64
2023-05-02T14:11:24.372Z,22.66
2023-05-02T14:13:53.879Z,22.68
2023-05-02T14:16:23.853Z,22.67
2023-05-02T14:18:52.345Z,22.68
2023-05-02T14:21:20.800Z,22.71
2023-05-02T14:23:49.237Z,22.74
2023-05-02T14:26:17.600Z,22.77
2023-05-02T14:28:46.284Z,22.80
2023-05-02T14:31:15.159Z,22.83
2023-05-02T14:33:45.184Z,22.86
2023-05-02T14:36:13.603Z,22.89
2023-05-02T14:38:42.169Z,22.89
2023-05-02T14:41:11.236Z,22.92
2023-05-02T14:43:40.323Z,22.96
2023-05-02T14:46:08.730Z,22.96
2023-05-02T14:48:37.204Z,22.98
2023-05-02T14:51:07.641Z,22.99
2023-05-02T14:53:36.207Z,23.01
2023-05-02T14:56:05.147Z,23.02
2023-05-02T14:58:33.931Z,23.02
2023-05-02T15:01:02.505Z,23.03
2023-05-02T15:03:30.957Z,23.03
2023-05-02T15:05:59.566Z,23.03
2023-05-02T15:08:29.350Z,23.03
2023-05-02T15:10:58.597Z,23.04
2023-05-02T15:13:27.136Z,23.02
2023-05-02T15:15:55.805Z,23.01
2023-05-02T15:18:24.344Z,22.98
2023-05-02T15:20:52.730Z,22.96
2023-05-02T15:23:21.496Z,22.95
2023-05-02T15:25:51.250Z,22.90
2023-05-02T15:28:19.688Z,22.88
2023-05-02T15:30:49.076Z,22.88
2023-05-02T15:33:17.598Z,22.86
2023-05-02T15:35:58.070Z,22.88
2023-05-02T15:38:26.810Z,22.88
2023-05-02T15:40:57.407Z,22.89
2023-05-02T15:43:26.796Z,22.89
2023-05-02T15:45:56.336Z,22.90
2023-05-02T15:48:25.486Z,22.90
2023-05-02T15:50:54.416Z,22.90
2023-05-02T15:53:23.029Z,22.89
2023-05-02T15:55:52.143Z,22.90
2023-05-02T15:58:22.112Z,22.88
2023-05-02T16:00:51.850Z,22.88
2023-05-02T16:03:20.354Z,22.89
2023-05-02T16:05:48.801Z,22.89
2023-05-02T16:08:17.211Z,22.89
2023-05-02T16:10:45.670Z,22.91
2023-05-02T16:13:14.061Z,22.91
2023-05-02T16:15:43.970Z,22.91
2023-05-02T16:18:12.647Z,22.92
2023-05-02T16:20:42.123Z,22.91
2023-05-02T16:23:10.641Z,22.93
2023-05-02T16:25:39.073Z,22.92
2023-05-02T16:28:07.475Z,22.92
2023-05-02T16:30:36.896Z,22.92
2023-05-02T16:33:07.104Z,22.91
2023-05-02T16:35:35.647Z,22.94
2023-05-02T16:38:04.078Z,22.95
2023-05-02T16:40:32.442Z,22.95
2023-05-02T16:43:01.381Z,22.92
2023-05-02T16:45:29.979Z,22.89
2023-05-02T16:47:58.645Z,22.85
2023-05-02T16:50:28.429Z,22.80
2023-05-02T16:52:56.926Z,22.78
2023-05-02T16:55:25.474Z,22.78
2023-05-02T16:57:53.943Z,22.80
2023-05-02T17:00:22.680Z,22.82
2023-05-02T17:02:54.937Z,22.85
2023-05-02T17:05:23.506Z,22.90
2023-05-02T17:07:53.389Z,22.94
2023-05-02T17:10:21.911Z,22.97
2023-05-02T17:12:50.672Z,22.98
2023-05-02T17:15:19.193Z,23.01
2023-05-02T17:17:47.756Z,23.04
2023-05-02T17:20:17.401Z,23.05
2023-05-02T17:22:46.262Z,23.04
2023-05-02T17:25:16.179Z,23.01
2023-05-02T17:27:44.664Z,22.98
2023-05-02T17:30:14.899Z,22.96
2023-05-02T17:32:43.762Z,22.97
2023-05-02T17:35:12.425Z,22.98
2023-05-02T17:37:40.932Z,23.00
2023-05-02T17:40:12.186Z,23.02
2023-05-02T17:42:43.567Z,23.03
2023-05-02T17:45:12.544Z,23.04
2023-05-02T17:47:41.081Z,23.06
2023-05-02T17:50:10.310Z,23.07
2023-05-02T17:52:38.830Z,23.07
2023-05-02T17:55:08.758Z,23.09
2023-05-02T17:57:37.345Z,23.09
2023-05-02T18:00:08.768Z,23.10
2023-05-02T18:02:38.347Z,23.09
2023-05-02T18:05:07.976Z,23.12
2023-05-02T18:07:36.618Z,23.11
2023-05-02T18:10:06.668Z,23.11
2023-05-02T18:12:35.185Z,23.14
2023-05-02T18:15:05.110Z,23.14
2023-05-02T18:17:37.257Z,23.14
2023-05-02T18:20:07.080Z,23.15
2023-05-02T18:22:35.673Z,23.15
2023-05-02T18:25:04.602Z,23.15
2023-05-02T18:27:33.363Z,23.15
2023-05-02T18:30:01.911Z,23.15
2023-05-02T18:32:31.576Z,23.14
2023-05-02T18:35:01.962Z,23.13
2023-05-02T18:37:31.904Z,23.14
2023-05-02T18:40:00.710Z,23.13
2023-05-02T18:42:29.243Z,23.13
2023-05-02T18:44:57.679Z,23.13
2023-05-02T18:47:26.200Z,23.12
2023-05-02T18:49:56.320Z,23.13
2023-05-02T18:52:26.740Z,23.14
2023-05-02T18:54:55.367Z,23.14
2023-05-02T18:57:24.659Z,23.14
2023-05-02T18:59:53.347Z,23.14
2023-05-02T19:02:22.502Z,23.13
2023-05-02T19:04:51.037Z,23.15
2023-05-02T19:07:19.473Z,23.14
2023-05-02T19:09:49.298Z,23.12
2023-05-02T19:12:17.760Z,23.12
2023-05-02T19:14:47.875Z,23.10
2023-05-02T19:17:16.421Z,23.07
2023-05-02T19:19:46.640Z,23.04
2023-05-02T19:22:15.244Z,22.97
2023-05-02T19:24:43.803Z,22.90
2023-05-02T19:27:13.545Z,22.82
2023-05-02T19:29:42.358Z,22.76
2023-05-02T19:32:10.936Z,22.67
2023-05-02T19:34:39.464Z,22.61
2023-05-02T19:37:08.025Z,22.56
2023-05-02T19:39:36.480Z,22.51
2023-05-02T19:42:05.426Z,22.45
2023-05-02T19:44:35.265Z,22.41
2023-05-02T19:47:03.741Z,22.37
2023-05-02T19:49:32.224Z,22.31
2023-05-02T19:52:00.874Z,22.29
2023-05-02T19:54:29.355Z,22.26
2023-05-02T19:56:57.830Z,22.23
2023-05-02T19:59:27.421Z,22.21
2023-05-02T20:01:57.352Z,22.18
2023-05-02T20:04:27.697Z,22.15
2023-05-02T20:06:56.213Z,22.13
2023-05-02T20:09:25.376Z,22.11
2023-05-02T20:11:53.837Z,22.09
2023-05-02T20:14:22.418Z,22.06
2023-05-02T20:16:51.086Z,22.02
2023-05-02T20:19:22.070Z,21.98
2023-05-02T20:21:50.684Z,21.94
2023-05-02T20:24:19.056Z,21.92
2023-05-02T20:26:47.513Z,21.90
2023-05-02T20:29:16.490Z,21.86
2023-05-02T20:31:45.032Z,21.83
2023-05-02T20:34:13.512Z,21.81
2023-05-02T20:36:43.364Z,21.77
2023-05-02T20:39:12.291Z,21.76
2023-05-02T20:41:40.793Z,21.74
2023-05-02T20:44:09.282Z,21.70
2023-05-02T20:46:37.937Z,21.67
2023-05-02T20:49:07.243Z,21.66
2023-05-02T20:51:35.706Z,21.62
2023-05-02T20:54:05.645Z,21.62
2023-05-02T20:56:34.044Z,21.61
2023-05-02T20:59:02.496Z,21.59
2023-05-02T21:01:31.129Z,21.58
2023-05-02T21:03:59.710Z,21.57
2023-05-02T21:06:28.224Z,21.56
2023-05-02T21:08:56.794Z,21.55
2023-05-02T21:11:26.777Z,21.53
2023-05-02T21:13:55.157Z,21.53
2023-05-02T21:16:23.777Z,21.53
2023-05-02T21:18:53.747Z,21.51
2023-05-02T21:21:23.474Z,21.50
2023-05-02T21:23:51.964Z,21.50
2023-05-02T21:26:20.582Z,21.49
2023-05-02T21:28:50.418Z,21.48
2023-05-02T21:31:18.836Z,21.46
2023-05-02T21:33:47.298Z,21.46
2023-05-02T21:36:15.862Z,21.46
2023-05-02T21:38:44.426Z,21.45
2023-05-02T21:41:12.838Z,21.43
2023-05-02T21:43:41.527Z,21.43
2023-05-02T21:46:13.332Z,21.42
2023-05-02T21:48:42.006Z,21.42
2023-05-02T21:51:13.885Z,21.41
2023-05-02T21:53:42.732Z,21.40
2023-05-02T21:56:11.736Z,21.39
2023-05-02T21:58:40.287Z,21.39
2023-05-02T22:01:08.828Z,21.36
2023-05-02T22:03:39.101Z,21.37
2023-05-02T22:06:07.935Z,21.36
2023-05-02T22:08:36.545Z,21.35
2023-05-02T22:11:09.488Z,21.34
2023-05-02T22:13:38.328Z,21.33
2023-05-02T22:16:08.000Z,21.32
2023-05-02T22:18:38.604Z,21.31
2023-05-02T22:21:08.301Z,21.30
2023-05-02T22:23:36.856Z,21.31
2023-05-02T22:26:05.610Z,21.30
2023-05-02T22:28:34.136Z,21.27
2023-05-02T22:31:03.183Z,21.27
2023-05-02T22:33:31.782Z,21.27
2023-05-02T22:36:01.664Z,21.27
2023-05-02T22:38:30.190Z,21.24
2023-05-02T22:40:58.681Z,21.24
2023-05-02T22:43:27.195Z,21.24
2023-05-02T22:45:55.927Z,21.24
2023-05-02T22:48:24.526Z,21.22
2023-05-02T22:50:53.092Z,21.22
2023-05-02T22:53:23.557Z,21.21
2023-05-02T22:55:52.246Z,21.21
2023-05-02T22:58:20.720Z,21.20
2023-05-02T23:00:49.202Z,21.20
2023-05-02T23:03:17.782Z,21.20
2023-05-02T23:05:46.415Z,21.19
2023-05-02T23:08:15.030Z,21.19
2023-05-02T23:10:44.776Z,21.17
2023-05-02T23:13:13.625Z,21.17
2023-05-02T23:15:42.101Z,21.15
2023-05-02T23:18:10.645Z,21.16
2023-05-02T23:20:39.052Z,21.15
2023-05-02T23:23:07.514Z,21.14
2023-05-02T23:25:36.633Z,21.14
2023-05-02T23:28:06.575Z,21.13
2023-05-02T23:30:35.206Z,21.13
2023-05-02T23:33:03.796Z,21.13
2023-05-02T23:35:32.848Z,21.11
2023-05-02T23:38:02.078Z,21.11
2023-05-02T23:40:31.580Z,21.10
2023-05-02T23:43:00.367Z,21.10
2023-05-02T23:45:30.112Z,21.08
2023-05-02T23:47:58.537Z,21.08
2023-05-02T23:50:27.074Z,21.10
2023-05-02T23:52:55.450Z,21.06
2023-05-02T23:55:23.861Z,21.07
2023-05-02T23:57:52.226Z,21.07
